sensor_id;sensor_type;location;lat;lon;timestamp;P1;durP1;ratioP1;P2;durP2;ratioP2
70814;SDS011;58428;49.478;10.986;2023-11-21T00:17:04;3.60;;;1.30;;
70814;SDS011;58428;49.478;10.986;2023-11-21T00:22:00;2.72;;;1.20;;
70814;SDS011;58428;49.478;10.986;2023-11-21T00:24:25;4.05;;;1.25;;
70814;SDS011;58428;49.478;10.986;2023-11-21T00:26:51;5.60;;;1.30;;
70814;SDS011;58428;49.478;10.986;2023-11-21T00:29:18;2.15;;;1.02;;
70814;SDS011;58428;49.478;10.986;2023-11-21T00:31:47;3.05;;;1.10;;
70814;SDS011;58428;49.478;10.986;2023-11-21T00:34:13;2.17;;;1.23;;
70814;SDS011;58428;49.478;10.986;2023-11-21T00:36:39;1.90;;;1.02;;
70814;SDS011;58428;49.478;10.986;2023-11-21T00:41:35;3.13;;;1.20;;
70814;SDS011;58428;49.478;10.986;2023-11-21T00:44:01;1.45;;;0.98;;
70814;SDS011;58428;49.478;10.986;2023-11-21T00:46:27;2.30;;;1.00;;
70814;SDS011;58428;49.478;10.986;2023-11-21T00:48:54;3.17;;;1.20;;
70814;SDS011;58428;49.478;10.986;2023-11-21T00:51:23;4.28;;;1.20;;
70814;SDS011;58428;49.478;10.986;2023-11-21T00:53:50;2.75;;;1.30;;
70814;SDS011;58428;49.478;10.986;2023-11-21T00:56:21;2.88;;;1.10;;
70814;SDS011;58428;49.478;10.986;2023-11-21T00:58:49;4.00;;;1.35;;
70814;SDS011;58428;49.478;10.986;2023-11-21T01:01:17;2.13;;;1.17;;
70814;SDS011;58428;49.478;10.986;2023-11-21T01:06:11;2.83;;;1.30;;
70814;SDS011;58428;49.478;10.986;2023-11-21T01:08:40;3.13;;;1.27;;
70814;SDS011;58428;49.478;10.986;2023-11-21T01:11:05;3.35;;;1.38;;
70814;SDS011;58428;49.478;10.986;2023-11-21T01:13:33;4.05;;;1.52;;
70814;SDS011;58428;49.478;10.986;2023-11-21T01:16:03;4.22;;;1.42;;
70814;SDS011;58428;49.478;10.986;2023-11-21T01:18:29;3.72;;;1.35;;
70814;SDS011;58428;49.478;10.986;2023-11-21T01:20:54;3.47;;;1.58;;
70814;SDS011;58428;49.478;10.986;2023-11-21T01:23:21;3.78;;;1.38;;
70814;SDS011;58428;49.478;10.986;2023-11-21T01:25:47;2.65;;;1.20;;
70814;SDS011;58428;49.478;10.986;2023-11-21T01:28:12;3.63;;;1.30;;
70814;SDS011;58428;49.478;10.986;2023-11-21T01:30:38;4.90;;;1.20;;
70814;SDS011;58428;49.478;10.986;2023-11-21T01:33:04;3.22;;;1.30;;
70814;SDS011;58428;49.478;10.986;2023-11-21T01:35:29;2.53;;;1.23;;
70814;SDS011;58428;49.478;10.986;2023-11-21T01:37:56;3.95;;;1.30;;
70814;SDS011;58428;49.478;10.986;2023-11-21T01:40:21;3.42;;;1.30;;
70814;SDS011;58428;49.478;10.986;2023-11-21T01:42:47;3.63;;;1.40;;
70814;SDS011;58428;49.478;10.986;2023-11-21T01:45:13;4.63;;;1.70;;
70814;SDS011;58428;49.478;10.986;2023-11-21T01:47:39;4.63;;;2.10;;
70814;SDS011;58428;49.478;10.986;2023-11-21T01:50:08;2.83;;;1.30;;
70814;SDS011;58428;49.478;10.986;2023-11-21T01:52:37;1.90;;;1.30;;
70814;SDS011;58428;49.478;10.986;2023-11-21T01:55:05;3.17;;;1.30;;
70814;SDS011;58428;49.478;10.986;2023-11-21T01:57:33;2.97;;;1.35;;
70814;SDS011;58428;49.478;10.986;2023-11-21T01:59:59;3.47;;;1.20;;
70814;SDS011;58428;49.478;10.986;2023-11-21T02:02:36;6.13;;;1.40;;
70814;SDS011;58428;49.478;10.986;2023-11-21T02:05:04;1.88;;;1.20;;
70814;SDS011;58428;49.478;10.986;2023-11-21T02:07:29;1.85;;;1.15;;
70814;SDS011;58428;49.478;10.986;2023-11-21T02:09:57;1.95;;;1.17;;
70814;SDS011;58428;49.478;10.986;2023-11-21T02:12:22;4.43;;;1.30;;
70814;SDS011;58428;49.478;10.986;2023-11-21T02:14:51;6.22;;;1.60;;
70814;SDS011;58428;49.478;10.986;2023-11-21T02:17:17;4.55;;;1.30;;
70814;SDS011;58428;49.478;10.986;2023-11-21T02:19:43;3.85;;;1.50;;
70814;SDS011;58428;49.478;10.986;2023-11-21T02:22:09;3.50;;;1.20;;
70814;SDS011;58428;49.478;10.986;2023-11-21T02:24:37;3.97;;;1.40;;
70814;SDS011;58428;49.478;10.986;2023-11-21T02:27:07;3.35;;;1.30;;
70814;SDS011;58428;49.478;10.986;2023-11-21T02:29:33;3.17;;;1.20;;
70814;SDS011;58428;49.478;10.986;2023-11-21T02:32:00;3.97;;;1.30;;
70814;SDS011;58428;49.478;10.986;2023-11-21T02:34:25;3.75;;;1.40;;
70814;SDS011;58428;49.478;10.986;2023-11-21T02:36:51;4.50;;;1.50;;
70814;SDS011;58428;49.478;10.986;2023-11-21T02:39:16;4.40;;;1.30;;
70814;SDS011;58428;49.478;10.986;2023-11-21T02:41:43;3.08;;;1.20;;
70814;SDS011;58428;49.478;10.986;2023-11-21T02:44:09;2.28;;;1.30;;
70814;SDS011;58428;49.478;10.986;2023-11-21T02:46:37;1.52;;;0.98;;
70814;SDS011;58428;49.478;10.986;2023-11-21T02:49:05;3.25;;;1.27;;
70814;SDS011;58428;49.478;10.986;2023-11-21T02:51:38;3.47;;;1.02;;
70814;SDS011;58428;49.478;10.986;2023-11-21T02:54:05;3.70;;;1.30;;
70814;SDS011;58428;49.478;10.986;2023-11-21T02:56:36;2.53;;;1.20;;
70814;SDS011;58428;49.478;10.986;2023-11-21T02:59:02;3.47;;;1.15;;
70814;SDS011;58428;49.478;10.986;2023-11-21T03:01:28;2.15;;;1.00;;
70814;SDS011;58428;49.478;10.986;2023-11-21T03:03:53;4.20;;;1.55;;
70814;SDS011;58428;49.478;10.986;2023-11-21T03:06:23;3.92;;;1.52;;
70814;SDS011;58428;49.478;10.986;2023-11-21T03:08:48;3.35;;;1.20;;
70814;SDS011;58428;49.478;10.986;2023-11-21T03:11:14;4.35;;;1.30;;
70814;SDS011;58428;49.478;10.986;2023-11-21T03:13:42;3.13;;;1.40;;
70814;SDS011;58428;49.478;10.986;2023-11-21T03:16:08;2.97;;;1.02;;
70814;SDS011;58428;49.478;10.986;2023-11-21T03:18:38;3.00;;;1.30;;
70814;SDS011;58428;49.478;10.986;2023-11-21T03:21:07;2.72;;;1.42;;
70814;SDS011;58428;49.478;10.986;2023-11-21T03:23:34;2.42;;;1.13;;
70814;SDS011;58428;49.478;10.986;2023-11-21T03:26:00;2.55;;;1.20;;
70814;SDS011;58428;49.478;10.986;2023-11-21T03:28:28;2.40;;;1.10;;
70814;SDS011;58428;49.478;10.986;2023-11-21T03:30:53;2.30;;;1.17;;
70814;SDS011;58428;49.478;10.986;2023-11-21T03:33:21;3.92;;;1.30;;
70814;SDS011;58428;49.478;10.986;2023-11-21T03:35:47;5.07;;;1.30;;
70814;SDS011;58428;49.478;10.986;2023-11-21T03:38:14;2.20;;;1.27;;
70814;SDS011;58428;49.478;10.986;2023-11-21T03:40:39;4.40;;;1.60;;
70814;SDS011;58428;49.478;10.986;2023-11-21T03:43:05;3.80;;;1.50;;
70814;SDS011;58428;49.478;10.986;2023-11-21T03:45:31;4.55;;;1.40;;
70814;SDS011;58428;49.478;10.986;2023-11-21T03:47:57;2.83;;;1.33;;
70814;SDS011;58428;49.478;10.986;2023-11-21T03:50:22;3.22;;;1.40;;
70814;SDS011;58428;49.478;10.986;2023-11-21T03:52:47;2.85;;;1.38;;
70814;SDS011;58428;49.478;10.986;2023-11-21T03:55:13;3.28;;;1.30;;
70814;SDS011;58428;49.478;10.986;2023-11-21T03:57:39;3.88;;;1.45;;
70814;SDS011;58428;49.478;10.986;2023-11-21T04:00:05;3.83;;;1.55;;
70814;SDS011;58428;49.478;10.986;2023-11-21T04:02:41;3.67;;;1.58;;
70814;SDS011;58428;49.478;10.986;2023-11-21T04:05:06;3.22;;;1.25;;
70814;SDS011;58428;49.478;10.986;2023-11-21T04:07:33;2.95;;;1.30;;
70814;SDS011;58428;49.478;10.986;2023-11-21T04:10:04;2.90;;;1.40;;
70814;SDS011;58428;49.478;10.986;2023-11-21T04:12:33;2.97;;;1.70;;
70814;SDS011;58428;49.478;10.986;2023-11-21T04:14:58;3.10;;;1.55;;
70814;SDS011;58428;49.478;10.986;2023-11-21T04:17:24;3.25;;;1.63;;
70814;SDS011;58428;49.478;10.986;2023-11-21T04:23:31;2.58;;;1.40;;
70814;SDS011;58428;49.478;10.986;2023-11-21T04:25:59;2.65;;;1.40;;
70814;SDS011;58428;49.478;10.986;2023-11-21T04:28:25;3.80;;;1.50;;
70814;SDS011;58428;49.478;10.986;2023-11-21T04:30:50;2.85;;;1.50;;
70814;SDS011;58428;49.478;10.986;2023-11-21T04:33:17;2.80;;;1.45;;
70814;SDS011;58428;49.478;10.986;2023-11-21T04:35:43;3.35;;;1.58;;
70814;SDS011;58428;49.478;10.986;2023-11-21T04:38:08;4.72;;;1.40;;
70814;SDS011;58428;49.478;10.986;2023-11-21T04:40:34;2.15;;;1.35;;
70814;SDS011;58428;49.478;10.986;2023-11-21T04:43:02;3.75;;;1.65;;
70814;SDS011;58428;49.478;10.986;2023-11-21T04:45:29;2.20;;;1.35;;
70814;SDS011;58428;49.478;10.986;2023-11-21T04:47:54;3.28;;;1.60;;
70814;SDS011;58428;49.478;10.986;2023-11-21T04:50:20;3.85;;;1.60;;
70814;SDS011;58428;49.478;10.986;2023-11-21T04:52:46;5.03;;;1.60;;
70814;SDS011;58428;49.478;10.986;2023-11-21T04:55:11;4.25;;;1.73;;
70814;SDS011;58428;49.478;10.986;2023-11-21T04:57:37;5.22;;;1.80;;
70814;SDS011;58428;49.478;10.986;2023-11-21T05:00:03;3.80;;;1.63;;
70814;SDS011;58428;49.478;10.986;2023-11-21T05:02:31;3.00;;;1.70;;
70814;SDS011;58428;49.478;10.986;2023-11-21T05:05:03;4.65;;;1.80;;
70814;SDS011;58428;49.478;10.986;2023-11-21T05:07:30;2.88;;;1.50;;
70814;SDS011;58428;49.478;10.986;2023-11-21T05:12:22;6.63;;;2.72;;
70814;SDS011;58428;49.478;10.986;2023-11-21T05:14:49;2.90;;;1.60;;
70814;SDS011;58428;49.478;10.986;2023-11-21T05:17:16;4.05;;;1.55;;
70814;SDS011;58428;49.478;10.986;2023-11-21T05:19:44;5.93;;;1.58;;
70814;SDS011;58428;49.478;10.986;2023-11-21T05:22:11;2.83;;;1.52;;
70814;SDS011;58428;49.478;10.986;2023-11-21T05:24:38;5.22;;;1.90;;
70814;SDS011;58428;49.478;10.986;2023-11-21T05:27:07;4.25;;;2.05;;
70814;SDS011;58428;49.478;10.986;2023-11-21T05:29:34;3.75;;;1.60;;
70814;SDS011;58428;49.478;10.986;2023-11-21T05:32:01;4.28;;;1.80;;
70814;SDS011;58428;49.478;10.986;2023-11-21T05:34:26;4.68;;;1.73;;
70814;SDS011;58428;49.478;10.986;2023-11-21T05:36:52;2.88;;;1.50;;
70814;SDS011;58428;49.478;10.986;2023-11-21T05:39:18;4.72;;;1.65;;
70814;SDS011;58428;49.478;10.986;2023-11-21T05:41:44;4.80;;;2.10;;
70814;SDS011;58428;49.478;10.986;2023-11-21T05:44:10;3.53;;;1.70;;
70814;SDS011;58428;49.478;10.986;2023-11-21T05:46:40;4.72;;;1.80;;
70814;SDS011;58428;49.478;10.986;2023-11-21T05:49:08;3.85;;;1.70;;
70814;SDS011;58428;49.478;10.986;2023-11-21T05:51:35;3.45;;;1.98;;
70814;SDS011;58428;49.478;10.986;2023-11-21T05:54:02;3.97;;;1.90;;
70814;SDS011;58428;49.478;10.986;2023-11-21T05:56:27;4.60;;;2.40;;
70814;SDS011;58428;49.478;10.986;2023-11-21T05:58:52;4.13;;;2.10;;
70814;SDS011;58428;49.478;10.986;2023-11-21T06:01:18;7.35;;;2.70;;
70814;SDS011;58428;49.478;10.986;2023-11-21T06:03:45;5.32;;;2.33;;
70814;SDS011;58428;49.478;10.986;2023-11-21T06:06:11;6.57;;;2.17;;
70814;SDS011;58428;49.478;10.986;2023-11-21T06:08:37;5.00;;;2.30;;
70814;SDS011;58428;49.478;10.986;2023-11-21T06:11:03;4.40;;;2.35;;
70814;SDS011;58428;49.478;10.986;2023-11-21T06:13:29;3.58;;;2.00;;
70814;SDS011;58428;49.478;10.986;2023-11-21T06:15:56;4.38;;;1.95;;
70814;SDS011;58428;49.478;10.986;2023-11-21T06:18:22;5.30;;;2.13;;
70814;SDS011;58428;49.478;10.986;2023-11-21T06:20:55;5.15;;;2.47;;
70814;SDS011;58428;49.478;10.986;2023-11-21T06:23:50;13.10;;;3.58;;
70814;SDS011;58428;49.478;10.986;2023-11-21T06:26:24;20.13;;;3.88;;
70814;SDS011;58428;49.478;10.986;2023-11-21T06:28:50;7.57;;;2.30;;
70814;SDS011;58428;49.478;10.986;2023-11-21T06:31:19;4.30;;;2.30;;
70814;SDS011;58428;49.478;10.986;2023-11-21T06:33:44;4.65;;;2.30;;
70814;SDS011;58428;49.478;10.986;2023-11-21T06:36:10;5.38;;;2.55;;
70814;SDS011;58428;49.478;10.986;2023-11-21T06:38:36;4.47;;;2.40;;
70814;SDS011;58428;49.478;10.986;2023-11-21T06:41:03;6.30;;;2.72;;
70814;SDS011;58428;49.478;10.986;2023-11-21T06:43:32;5.40;;;2.50;;
70814;SDS011;58428;49.478;10.986;2023-11-21T06:45:58;4.97;;;2.35;;
70814;SDS011;58428;49.478;10.986;2023-11-21T06:48:23;5.32;;;3.00;;
70814;SDS011;58428;49.478;10.986;2023-11-21T06:50:52;6.07;;;2.28;;
70814;SDS011;58428;49.478;10.986;2023-11-21T06:53:18;6.05;;;2.42;;
70814;SDS011;58428;49.478;10.986;2023-11-21T06:55:47;5.35;;;2.60;;
70814;SDS011;58428;49.478;10.986;2023-11-21T06:58:23;4.85;;;2.70;;
70814;SDS011;58428;49.478;10.986;2023-11-21T07:01:03;5.15;;;2.38;;
70814;SDS011;58428;49.478;10.986;2023-11-21T07:06:30;6.00;;;3.10;;
70814;SDS011;58428;49.478;10.986;2023-11-21T07:09:02;5.25;;;2.83;;
70814;SDS011;58428;49.478;10.986;2023-11-21T07:11:30;7.18;;;2.97;;
70814;SDS011;58428;49.478;10.986;2023-11-21T07:19:55;6.82;;;3.08;;
70814;SDS011;58428;49.478;10.986;2023-11-21T07:22:23;4.70;;;2.60;;
70814;SDS011;58428;49.478;10.986;2023-11-21T07:25:02;5.13;;;2.85;;
70814;SDS011;58428;49.478;10.986;2023-11-21T07:30:43;7.35;;;2.80;;
70814;SDS011;58428;49.478;10.986;2023-11-21T07:33:37;5.68;;;2.63;;
70814;SDS011;58428;49.478;10.986;2023-11-21T07:36:08;7.55;;;2.80;;
70814;SDS011;58428;49.478;10.986;2023-11-21T07:38:46;7.05;;;3.20;;
70814;SDS011;58428;49.478;10.986;2023-11-21T07:41:15;5.63;;;2.85;;
70814;SDS011;58428;49.478;10.986;2023-11-21T07:46:30;5.95;;;2.72;;
70814;SDS011;58428;49.478;10.986;2023-11-21T07:49:00;6.15;;;2.92;;
70814;SDS011;58428;49.478;10.986;2023-11-21T07:51:35;6.13;;;3.05;;
70814;SDS011;58428;49.478;10.986;2023-11-21T07:54:19;6.63;;;2.80;;
70814;SDS011;58428;49.478;10.986;2023-11-21T07:57:13;5.15;;;2.80;;
70814;SDS011;58428;49.478;10.986;2023-11-21T07:59:46;4.90;;;2.70;;
70814;SDS011;58428;49.478;10.986;2023-11-21T08:02:23;6.18;;;2.60;;
70814;SDS011;58428;49.478;10.986;2023-11-21T08:05:11;4.97;;;2.83;;
70814;SDS011;58428;49.478;10.986;2023-11-21T08:07:47;5.28;;;2.80;;
70814;SDS011;58428;49.478;10.986;2023-11-21T08:10:13;6.57;;;3.08;;
70814;SDS011;58428;49.478;10.986;2023-11-21T08:12:45;5.30;;;3.30;;
70814;SDS011;58428;49.478;10.986;2023-11-21T08:15:19;5.20;;;2.97;;
70814;SDS011;58428;49.478;10.986;2023-11-21T08:17:54;7.35;;;3.53;;
70814;SDS011;58428;49.478;10.986;2023-11-21T08:20:23;6.78;;;3.08;;
70814;SDS011;58428;49.478;10.986;2023-11-21T08:23:02;5.97;;;3.00;;
70814;SDS011;58428;49.478;10.986;2023-11-21T08:25:30;5.90;;;3.50;;
70814;SDS011;58428;49.478;10.986;2023-11-21T08:28:00;6.03;;;2.72;;
70814;SDS011;58428;49.478;10.986;2023-11-21T08:33:16;8.13;;;3.83;;
70814;SDS011;58428;49.478;10.986;2023-11-21T08:36:01;5.70;;;2.90;;
70814;SDS011;58428;49.478;10.986;2023-11-21T08:38:36;6.80;;;4.18;;
70814;SDS011;58428;49.478;10.986;2023-11-21T08:41:06;5.00;;;2.90;;
70814;SDS011;58428;49.478;10.986;2023-11-21T08:43:40;6.93;;;3.30;;
70814;SDS011;58428;49.478;10.986;2023-11-21T08:46:10;7.50;;;3.40;;
70814;SDS011;58428;49.478;10.986;2023-11-21T08:48:51;8.40;;;3.88;;
70814;SDS011;58428;49.478;10.986;2023-11-21T08:51:17;6.00;;;3.45;;
70814;SDS011;58428;49.478;10.986;2023-11-21T08:53:46;7.55;;;3.17;;
70814;SDS011;58428;49.478;10.986;2023-11-21T08:58:49;7.40;;;3.60;;
70814;SDS011;58428;49.478;10.986;2023-11-21T09:01:16;6.85;;;3.40;;
70814;SDS011;58428;49.478;10.986;2023-11-21T09:03:42;7.28;;;3.55;;
70814;SDS011;58428;49.478;10.986;2023-11-21T09:06:09;6.50;;;3.85;;
70814;SDS011;58428;49.478;10.986;2023-11-21T09:08:39;7.00;;;3.75;;
70814;SDS011;58428;49.478;10.986;2023-11-21T09:11:12;5.45;;;3.25;;
70814;SDS011;58428;49.478;10.986;2023-11-21T09:13:41;6.63;;;3.45;;
70814;SDS011;58428;49.478;10.986;2023-11-21T09:16:07;7.75;;;3.75;;
70814;SDS011;58428;49.478;10.986;2023-11-21T09:18:36;7.70;;;3.88;;
70814;SDS011;58428;49.478;10.986;2023-11-21T09:21:04;7.05;;;4.03;;
70814;SDS011;58428;49.478;10.986;2023-11-21T09:23:36;7.55;;;3.50;;
70814;SDS011;58428;49.478;10.986;2023-11-21T09:26:02;6.65;;;3.85;;
70814;SDS011;58428;49.478;10.986;2023-11-21T09:31:26;6.43;;;3.50;;
70814;SDS011;58428;49.478;10.986;2023-11-21T09:33:52;9.07;;;3.53;;
70814;SDS011;58428;49.478;10.986;2023-11-21T09:36:21;7.47;;;4.10;;
70814;SDS011;58428;49.478;10.986;2023-11-21T09:38:52;7.43;;;4.47;;
70814;SDS011;58428;49.478;10.986;2023-11-21T09:41:27;8.60;;;5.07;;
70814;SDS011;58428;49.478;10.986;2023-11-21T09:44:22;6.10;;;3.80;;
70814;SDS011;58428;49.478;10.986;2023-11-21T09:47:00;6.70;;;4.03;;
70814;SDS011;58428;49.478;10.986;2023-11-21T09:52:08;7.72;;;3.88;;
70814;SDS011;58428;49.478;10.986;2023-11-21T09:54:51;7.47;;;3.50;;
70814;SDS011;58428;49.478;10.986;2023-11-21T09:57:30;7.25;;;3.42;;
70814;SDS011;58428;49.478;10.986;2023-11-21T09:59:59;7.97;;;3.83;;
70814;SDS011;58428;49.478;10.986;2023-11-21T10:02:42;6.28;;;3.85;;
70814;SDS011;58428;49.478;10.986;2023-11-21T10:05:07;6.60;;;3.53;;
70814;SDS011;58428;49.478;10.986;2023-11-21T10:07:36;7.05;;;3.67;;
70814;SDS011;58428;49.478;10.986;2023-11-21T10:10:04;6.93;;;3.67;;
70814;SDS011;58428;49.478;10.986;2023-11-21T11:43:25;6.63;;;3.30;;
70814;SDS011;58428;49.478;10.986;2023-11-21T11:46:10;7.82;;;3.75;;
70814;SDS011;58428;49.478;10.986;2023-11-21T11:48:40;7.40;;;3.38;;
70814;SDS011;58428;49.478;10.986;2023-11-21T11:51:13;5.93;;;3.53;;
70814;SDS011;58428;49.478;10.986;2023-11-21T11:53:52;5.72;;;3.28;;
70814;SDS011;58428;49.478;10.986;2023-11-21T11:58:58;7.30;;;3.75;;
70814;SDS011;58428;49.478;10.986;2023-11-21T12:01:27;8.07;;;4.00;;
70814;SDS011;58428;49.478;10.986;2023-11-21T15:08:25;7.65;;;3.33;;
70814;SDS011;58428;49.478;10.986;2023-11-21T15:11:00;7.25;;;3.17;;
70814;SDS011;58428;49.478;10.986;2023-11-21T15:14:00;9.27;;;4.20;;
70814;SDS011;58428;49.478;10.986;2023-11-21T15:16:25;8.65;;;3.60;;
70814;SDS011;58428;49.478;10.986;2023-11-21T15:18:56;8.00;;;3.15;;
70814;SDS011;58428;49.478;10.986;2023-11-21T15:21:29;6.38;;;2.80;;
70814;SDS011;58428;49.478;10.986;2023-11-21T15:24:06;6.60;;;2.67;;
70814;SDS011;58428;49.478;10.986;2023-11-21T16:54:21;10.85;;;4.70;;
70814;SDS011;58428;49.478;10.986;2023-11-21T16:56:47;12.55;;;5.07;;
70814;SDS011;58428;49.478;10.986;2023-11-21T16:59:12;10.50;;;4.80;;
70814;SDS011;58428;49.478;10.986;2023-11-21T17:01:39;9.85;;;4.38;;
70814;SDS011;58428;49.478;10.986;2023-11-21T17:04:04;9.55;;;4.47;;
70814;SDS011;58428;49.478;10.986;2023-11-21T18:37:25;28.90;;;15.57;;
70814;SDS011;58428;49.478;10.986;2023-11-21T18:39:54;15.25;;;8.30;;
70814;SDS011;58428;49.478;10.986;2023-11-21T18:42:32;11.07;;;5.80;;
70814;SDS011;58428;49.478;10.986;2023-11-21T18:45:12;11.13;;;5.32;;
70814;SDS011;58428;49.478;10.986;2023-11-21T18:47:48;12.80;;;6.28;;
70814;SDS011;58428;49.478;10.986;2023-11-21T18:50:27;11.32;;;5.05;;
70814;SDS011;58428;49.478;10.986;2023-11-21T18:55:59;11.30;;;5.10;;
70814;SDS011;58428;49.478;10.986;2023-11-21T18:58:25;22.17;;;10.98;;
70814;SDS011;58428;49.478;10.986;2023-11-21T19:00:52;26.95;;;11.55;;
70814;SDS011;58428;49.478;10.986;2023-11-21T19:03:43;10.02;;;5.60;;
70814;SDS011;58428;49.478;10.986;2023-11-21T19:06:13;11.80;;;5.57;;
70814;SDS011;58428;49.478;10.986;2023-11-21T19:08:41;9.45;;;5.00;;
70814;SDS011;58428;49.478;10.986;2023-11-21T19:11:13;10.50;;;4.70;;
70814;SDS011;58428;49.478;10.986;2023-11-21T19:13:38;10.93;;;5.65;;
70814;SDS011;58428;49.478;10.986;2023-11-21T19:16:04;11.52;;;5.60;;
70814;SDS011;58428;49.478;10.986;2023-11-21T19:22:08;18.30;;;8.75;;
70814;SDS011;58428;49.478;10.986;2023-11-21T19:24:41;15.60;;;7.75;;
70814;SDS011;58428;49.478;10.986;2023-11-21T19:27:23;12.20;;;5.90;;
70814;SDS011;58428;49.478;10.986;2023-11-21T19:30:28;11.40;;;5.50;;
70814;SDS011;58428;49.478;10.986;2023-11-21T19:33:19;14.77;;;7.40;;
70814;SDS011;58428;49.478;10.986;2023-11-21T19:36:05;12.95;;;5.15;;
70814;SDS011;58428;49.478;10.986;2023-11-21T21:13:36;10.15;;;3.60;;
70814;SDS011;58428;49.478;10.986;2023-11-21T21:16:08;6.57;;;3.35;;
70814;SDS011;58428;49.478;10.986;2023-11-21T21:19:16;6.15;;;3.08;;
70814;SDS011;58428;49.478;10.986;2023-11-21T21:22:08;6.43;;;2.78;;
70814;SDS011;58428;49.478;10.986;2023-11-21T21:24:46;5.70;;;2.55;;
70814;SDS011;58428;49.478;10.986;2023-11-21T21:30:29;6.10;;;2.70;;
70814;SDS011;58428;49.478;10.986;2023-11-21T21:32:55;6.30;;;3.08;;
70814;SDS011;58428;49.478;10.986;2023-11-21T21:35:24;5.65;;;2.30;;
70814;SDS011;58428;49.478;10.986;2023-11-21T21:38:11;5.22;;;2.47;;
70814;SDS011;58428;49.478;10.986;2023-11-21T21:41:09;5.00;;;2.25;;
70814;SDS011;58428;49.478;10.986;2023-11-21T21:44:18;5.40;;;2.63;;
70814;SDS011;58428;49.478;10.986;2023-11-21T21:46:55;4.68;;;2.50;;
70814;SDS011;58428;49.478;10.986;2023-11-21T21:49:23;5.90;;;2.25;;
70814;SDS011;58428;49.478;10.986;2023-11-21T21:51:53;5.18;;;2.28;;
70814;SDS011;58428;49.478;10.986;2023-11-21T21:54:23;6.82;;;2.50;;
70814;SDS011;58428;49.478;10.986;2023-11-21T21:57:06;4.45;;;2.17;;
70814;SDS011;58428;49.478;10.986;2023-11-21T21:59:41;6.05;;;2.40;;
70814;SDS011;58428;49.478;10.986;2023-11-21T22:02:19;5.05;;;2.55;;
70814;SDS011;58428;49.478;10.986;2023-11-21T22:04:51;6.65;;;2.70;;
70814;SDS011;58428;49.478;10.986;2023-11-21T22:07:46;5.50;;;2.58;;
70814;SDS011;58428;49.478;10.986;2023-11-21T23:47:27;9.27;;;4.40;;
